createdAt,value
2022-08-03T00:01:54.666Z,100841.13
2022-08-03T00:04:34.093Z,100834.78
2022-08-03T00:07:04.691Z,100825.06
2022-08-03T00:09:35.427Z,100824.00
2022-08-03T00:12:06.293Z,100828.09
2022-08-03T00:14:36.584Z,100829.47
2022-08-03T00:17:09.419Z,100836.88
2022-08-03T00:19:39.630Z,100838.44
2022-08-03T00:22:09.971Z,100835.81
2022-08-03T00:24:40.249Z,100832.16
2022-08-03T00:27:10.468Z,100830.94
2022-08-03T00:29:59.708Z,100827.81
2022-08-03T00:32:33.231Z,100830.31
2022-08-03T00:35:09.303Z,100831.13
2022-08-03T00:37:42.018Z,100820.78
2022-08-03T00:40:15.483Z,100827.19
2022-08-03T00:42:54.037Z,100825.13
2022-08-03T00:45:26.767Z,100829.09
2022-08-03T00:48:00.507Z,100826.66
2022-08-03T00:50:32.779Z,100836.59
2022-08-03T00:53:03.408Z,100834.38
2022-08-03T00:55:34.359Z,100832.94
2022-08-03T00:58:06.932Z,100832.09
2022-08-03T01:00:39.113Z,100823.31
2022-08-03T01:03:13.175Z,100834.91
2022-08-03T01:05:55.542Z,100832.00
2022-08-03T01:08:40.540Z,100832.91
2022-08-03T01:11:17.874Z,100830.91
2022-08-03T01:14:01.715Z,100829.94
2022-08-03T01:16:55.374Z,100830.72
2022-08-03T01:19:40.138Z,100832.72
2022-08-03T01:22:25.802Z,100826.03
2022-08-03T01:25:05.868Z,100832.34
2022-08-03T01:27:54.302Z,100833.38
2022-08-03T01:30:30.907Z,100825.13
2022-08-03T01:33:06.878Z,100825.19
2022-08-03T01:35:42.512Z,100829.34
2022-08-03T01:38:16.703Z,100829.56
2022-08-03T01:40:49.251Z,100829.75
2022-08-03T01:43:54.920Z,100838.06
2022-08-03T01:46:16.581Z,100834.84
2022-08-03T01:48:49.422Z,100839.81
2022-08-03T01:51:21.650Z,100833.78
2022-08-03T01:53:55.052Z,100832.56
2022-08-03T01:56:27.966Z,100833.22
2022-08-03T01:59:00.792Z,100832.25
2022-08-03T02:02:32.117Z,100831.19
2022-08-03T02:04:27.163Z,100827.19
2022-08-03T02:07:01.077Z,100833.81
2022-08-03T02:09:34.182Z,100830.13
2022-08-03T02:12:05.859Z,100834.78
2022-08-03T02:14:37.600Z,100845.75
2022-08-03T02:17:11.051Z,100843.94
2022-08-03T02:19:42.740Z,100840.16
2022-08-03T02:22:16.025Z,100838.97
2022-08-03T02:24:46.506Z,100846.84
2022-08-03T02:27:24.640Z,100842.06
2022-08-03T02:29:59.497Z,100846.88
2022-08-03T02:32:37.559Z,100841.41
2022-08-03T02:35:12.793Z,100848.34
2022-08-03T02:37:49.748Z,100849.03
2022-08-03T02:40:22.273Z,100847.53
2022-08-03T02:42:56.713Z,100843.78
2022-08-03T02:45:30.030Z,100844.47
2022-08-03T02:48:05.972Z,100847.25
2022-08-03T02:50:37.984Z,100843.19
2022-08-03T02:53:11.020Z,100843.19
2022-08-03T02:55:45.701Z,100847.41
2022-08-03T02:58:17.430Z,100842.06
2022-08-03T03:00:48.164Z,100834.09
2022-08-03T03:03:21.719Z,100848.47
2022-08-03T03:05:57.806Z,100847.91
2022-08-03T03:08:30.515Z,100838.03
2022-08-03T03:11:03.540Z,100849.59
2022-08-03T03:13:34.923Z,100854.47
2022-08-03T03:16:07.841Z,100850.13
2022-08-03T03:18:41.496Z,100846.75
2022-08-03T03:21:13.654Z,100852.59
2022-08-03T03:23:45.103Z,100855.84
2022-08-03T03:26:17.396Z,100859.41
2022-08-03T03:28:48.266Z,100862.97
2022-08-03T03:31:18.754Z,100870.84
2022-08-03T03:33:51.912Z,100873.59
2022-08-03T03:36:22.524Z,100873.63
2022-08-03T03:38:53.773Z,100876.03
2022-08-03T03:41:24.155Z,100877.53
2022-08-03T03:43:54.638Z,100878.34
2022-08-03T03:46:25.020Z,100883.38
2022-08-03T03:48:57.956Z,100881.41
2022-08-03T03:51:28.262Z,100882.84
2022-08-03T03:53:59.788Z,100881.50
2022-08-03T03:56:30.714Z,100890.56
2022-08-03T03:59:00.910Z,100884.63
2022-08-03T04:01:31.699Z,100878.09
2022-08-03T04:04:25.098Z,100885.41
2022-08-03T04:07:07.576Z,100887.66
2022-08-03T04:09:51.513Z,100881.94
2022-08-03T04:12:22.855Z,100886.66
2022-08-03T04:14:55.037Z,100889.78
2022-08-03T04:17:29.282Z,100885.44
2022-08-03T04:20:03.406Z,100888.25
2022-08-03T04:22:35.956Z,100892.75
2022-08-03T04:25:10.303Z,100896.03
2022-08-03T04:27:43.552Z,100896.69
2022-08-03T04:30:14.754Z,100902.81
2022-08-03T04:32:51.943Z,100902.19
2022-08-03T04:36:01.431Z,100906.03
2022-08-03T04:38:21.592Z,100902.66
2022-08-03T04:40:52.261Z,100891.75
2022-08-03T04:43:25.699Z,100899.25
2022-08-03T04:45:57.993Z,100902.56
2022-08-03T04:48:28.548Z,100909.16
2022-08-03T04:51:04.605Z,100913.81
2022-08-03T04:53:34.824Z,100912.91
2022-08-03T04:56:08.541Z,100912.09
2022-08-03T04:58:38.989Z,100921.31
2022-08-03T05:01:09.246Z,100918.94
2022-08-03T05:03:39.714Z,100917.47
2022-08-03T05:06:12.589Z,100926.69
2022-08-03T05:08:48.821Z,100924.94
2022-08-03T05:11:21.574Z,100937.09
2022-08-03T05:13:51.959Z,100926.69
2022-08-03T05:16:22.307Z,100925.56
2022-08-03T05:18:52.558Z,100939.16
2022-08-03T05:21:25.369Z,100931.28
2022-08-03T05:24:12.067Z,100929.09
2022-08-03T05:26:42.291Z,100923.00
2022-08-03T05:29:12.537Z,100924.00
2022-08-03T05:31:42.967Z,100929.81
2022-08-03T05:34:13.191Z,100924.34
2022-08-03T05:36:45.963Z,100944.91
2022-08-03T05:39:16.308Z,100933.34
2022-08-03T05:41:46.499Z,100924.19
2022-08-03T05:44:16.706Z,100928.97
2022-08-03T05:46:46.885Z,100938.78
2022-08-03T05:49:17.158Z,100936.03
2022-08-03T05:52:08.350Z,100936.63
2022-08-03T05:54:57.010Z,100928.06
2022-08-03T05:57:28.034Z,100936.50
2022-08-03T05:59:58.914Z,100937.81
2022-08-03T06:02:29.678Z,100937.91
2022-08-03T06:05:00.083Z,100948.84
2022-08-03T06:07:32.955Z,100949.59
2022-08-03T06:10:36.259Z,100930.06
2022-08-03T06:12:54.106Z,100941.16
2022-08-03T06:15:24.550Z,100938.13
2022-08-03T06:18:01.494Z,100943.97
2022-08-03T06:20:32.350Z,100930.66
2022-08-03T06:23:05.211Z,100934.66
2022-08-03T06:25:37.692Z,100919.50
2022-08-03T06:28:14.973Z,100938.09
2022-08-03T06:30:54.169Z,100933.63
2022-08-03T06:33:25.700Z,100931.59
2022-08-03T06:36:15.953Z,100938.84
2022-08-03T06:38:48.747Z,100926.22
2022-08-03T06:41:19.108Z,100932.94
2022-08-03T06:44:03.506Z,100937.00
2022-08-03T06:46:34.671Z,100941.28
2022-08-03T06:49:05.036Z,100963.38
2022-08-03T06:52:37.069Z,100939.31
2022-08-03T06:54:28.204Z,100933.88
2022-08-03T06:56:58.394Z,100937.38
2022-08-03T07:00:08.544Z,100949.84
2022-08-03T07:02:19.605Z,100946.38
2022-08-03T07:04:50.184Z,100946.78
2022-08-03T07:07:20.892Z,100962.78
2022-08-03T07:09:57.752Z,100945.59
2022-08-03T07:12:29.913Z,100937.47
2022-08-03T07:15:02.961Z,100954.88
2022-08-03T07:17:34.585Z,100966.66
2022-08-03T07:20:06.073Z,100926.03
2022-08-03T07:22:36.518Z,100951.84
2022-08-03T07:25:10.098Z,100947.25
2022-08-03T07:27:40.429Z,100944.50
2022-08-03T07:30:12.245Z,100939.41
2022-08-03T07:32:50.194Z,100937.97
2022-08-03T07:35:24.474Z,100945.78
2022-08-03T07:37:55.576Z,100958.19
2022-08-03T07:40:31.614Z,100955.63
2022-08-03T07:43:03.661Z,100956.84
2022-08-03T07:45:34.837Z,100960.69
2022-08-03T07:48:08.837Z,100942.84
2022-08-03T07:50:42.430Z,100942.38
2022-08-03T07:53:12.682Z,100955.91
2022-08-03T07:55:45.579Z,100957.34
2022-08-03T07:58:22.075Z,100970.97
2022-08-03T08:00:54.785Z,100961.06
2022-08-03T08:03:26.899Z,100960.28
2022-08-03T08:05:57.135Z,100961.56
2022-08-03T08:08:27.379Z,100975.06
2022-08-03T08:11:00.235Z,100966.19
2022-08-03T08:13:30.499Z,100964.88
2022-08-03T08:16:00.738Z,100926.59
2022-08-03T08:18:31.970Z,100954.53
2022-08-03T08:21:03.544Z,100956.63
2022-08-03T08:23:43.192Z,100962.13
2022-08-03T08:26:17.741Z,100965.28
2022-08-03T08:28:48.227Z,100963.63
2022-08-03T08:31:18.518Z,100970.19
2022-08-03T08:34:03.686Z,100969.59
2022-08-03T08:36:35.858Z,100966.53
2022-08-03T08:39:06.339Z,100969.59
2022-08-03T08:41:39.315Z,100966.91
2022-08-03T08:44:16.719Z,100965.28
2022-08-03T08:46:47.669Z,100977.00
2022-08-03T08:49:24.219Z,100966.88
2022-08-03T08:52:00.712Z,100972.03
2022-08-03T08:54:34.859Z,100966.09
2022-08-03T08:57:26.891Z,100962.56
2022-08-03T09:00:00.579Z,100962.69
2022-08-03T09:02:33.630Z,100964.78
2022-08-03T09:05:07.539Z,100967.88
2022-08-03T09:07:38.302Z,100966.25
2022-08-03T09:10:13.225Z,100961.13
2022-08-03T09:12:47.097Z,100970.75
2022-08-03T09:15:22.778Z,100955.97
2022-08-03T09:17:54.028Z,100962.50
2022-08-03T09:20:25.917Z,100963.09
2022-08-03T09:22:59.148Z,100970.09
2022-08-03T09:25:34.930Z,100956.16
2022-08-03T09:28:52.886Z,100956.81
2022-08-03T09:31:06.078Z,100965.19
2022-08-03T09:33:36.388Z,100956.53
2022-08-03T09:36:06.964Z,100963.84
2022-08-03T09:38:37.274Z,100964.41
2022-08-03T09:41:21.144Z,100958.59
2022-08-03T09:43:57.261Z,100958.59
2022-08-03T09:46:28.739Z,100955.50
2022-08-03T09:49:13.678Z,100949.63
2022-08-03T09:52:33.567Z,100938.91
2022-08-03T09:54:35.497Z,100945.53
2022-08-03T09:57:06.135Z,100948.00
2022-08-03T09:59:41.093Z,100949.41
2022-08-03T10:02:24.962Z,100940.56
2022-08-03T10:04:56.207Z,100939.13
2022-08-03T10:07:27.767Z,100942.59
2022-08-03T10:10:29.105Z,100938.91
2022-08-03T10:12:51.158Z,100945.81
2022-08-03T10:16:22.946Z,100933.25
2022-08-03T10:18:14.680Z,100940.47
2022-08-03T10:20:49.777Z,100941.97
2022-08-03T10:23:21.825Z,100921.03
2022-08-03T10:25:58.044Z,100927.78
2022-08-03T10:28:28.605Z,100931.84
2022-08-03T10:31:01.516Z,100928.63
2022-08-03T10:33:50.774Z,100926.13
2022-08-03T10:36:26.099Z,100917.03
2022-08-03T10:38:57.582Z,100920.38
2022-08-03T10:41:34.169Z,100923.06
2022-08-03T10:44:09.019Z,100917.31
2022-08-03T10:46:45.144Z,100921.63
2022-08-03T10:49:25.491Z,100917.06
2022-08-03T10:52:12.956Z,100915.25
2022-08-03T10:55:10.003Z,100924.63
2022-08-03T10:57:52.615Z,100920.16
2022-08-03T11:00:30.884Z,100918.63
2022-08-03T11:03:21.486Z,100919.88
2022-08-03T11:05:54.653Z,100918.91
2022-08-03T11:08:28.110Z,100906.22
2022-08-03T11:11:00.388Z,100906.53
2022-08-03T11:13:33.725Z,100881.09
2022-08-03T11:16:10.905Z,100905.72
2022-08-03T11:18:59.923Z,100907.31
2022-08-03T11:22:00.097Z,100899.63
2022-08-03T11:25:00.120Z,100896.22
2022-08-03T11:27:37.894Z,100902.25
2022-08-03T11:30:11.548Z,100890.28
2022-08-03T11:33:00.787Z,100892.13
2022-08-03T11:35:36.008Z,100895.19
2022-08-03T11:38:11.929Z,100885.44
2022-08-03T11:40:47.563Z,100879.59
2022-08-03T11:43:47.512Z,100884.81
2022-08-03T11:46:28.538Z,100887.41
2022-08-03T11:49:10.922Z,100884.41
2022-08-03T11:51:44.095Z,100879.50
2022-08-03T11:54:14.359Z,100886.50
2022-08-03T11:56:48.875Z,100879.44
2022-08-03T11:59:22.192Z,100879.84
2022-08-03T12:01:53.495Z,100880.63
2022-08-03T12:04:23.663Z,100882.38
2022-08-03T12:07:05.976Z,100878.13
2022-08-03T12:09:38.298Z,100888.69
2022-08-03T12:12:08.982Z,100891.13
2022-08-03T12:14:48.540Z,100887.22
2022-08-03T12:17:22.621Z,100879.56
2022-08-03T12:19:53.107Z,100884.41
2022-08-03T12:22:38.032Z,100886.44
2022-08-03T12:25:11.533Z,100878.59
2022-08-03T12:27:41.760Z,100871.94
2022-08-03T12:30:13.845Z,100872.75
2022-08-03T12:32:46.313Z,100871.03
2022-08-03T12:35:26.662Z,100881.31
2022-08-03T12:37:59.504Z,100858.50
2022-08-03T12:40:30.137Z,100860.69
2022-08-03T12:43:00.441Z,100867.28
2022-08-03T12:45:34.819Z,100860.69
2022-08-03T12:48:05.623Z,100861.19
2022-08-03T12:50:37.209Z,100864.25
2022-08-03T12:53:11.478Z,100862.28
2022-08-03T12:55:57.399Z,100864.19
2022-08-03T12:58:35.777Z,100869.69
2022-08-03T13:01:09.650Z,100867.13
2022-08-03T13:03:45.864Z,100868.44
2022-08-03T13:06:21.680Z,100868.44
2022-08-03T13:09:05.472Z,100859.25
2022-08-03T13:11:55.891Z,100867.16
2022-08-03T13:14:26.347Z,100863.44
2022-08-03T13:16:56.566Z,100866.84
2022-08-03T13:19:26.760Z,100857.53
2022-08-03T13:22:03.574Z,100862.59
2022-08-03T13:24:37.379Z,100853.72
2022-08-03T13:28:02.087Z,100857.19
2022-08-03T13:29:58.704Z,100859.28
2022-08-03T13:32:28.875Z,100847.16
2022-08-03T13:34:59.172Z,100850.97
2022-08-03T13:37:29.666Z,100857.34
2022-08-03T13:40:04.533Z,100867.66
2022-08-03T13:42:38.931Z,100856.47
2022-08-03T13:45:11.582Z,100859.00
2022-08-03T13:47:41.852Z,100853.63
2022-08-03T13:50:12.123Z,100854.94
2022-08-03T13:52:42.285Z,100865.97
2022-08-03T13:55:15.533Z,100863.66
2022-08-03T13:58:02.872Z,100851.19
2022-08-03T14:00:35.966Z,100855.28
2022-08-03T14:03:14.148Z,100854.09
2022-08-03T14:05:45.781Z,100857.41
2022-08-03T14:08:16.052Z,100856.00
2022-08-03T14:10:49.066Z,100854.09
2022-08-03T14:13:19.311Z,100857.06
2022-08-03T14:15:51.338Z,100863.38
2022-08-03T14:18:29.152Z,100852.94
2022-08-03T14:21:07.023Z,100846.50
2022-08-03T14:23:38.845Z,100849.09
2022-08-03T14:26:14.728Z,100859.47
2022-08-03T14:28:45.033Z,100859.09
2022-08-03T14:32:09.200Z,100854.84
2022-08-03T14:34:05.496Z,100852.13
2022-08-03T14:36:35.875Z,100855.72
2022-08-03T14:39:06.406Z,100857.22
2022-08-03T14:41:39.318Z,100857.13
2022-08-03T14:44:09.495Z,100851.63
2022-08-03T14:46:39.705Z,100857.97
2022-08-03T14:50:31.386Z,100863.00
2022-08-03T14:52:00.119Z,100843.75
2022-08-03T14:54:31.611Z,100843.66
2022-08-03T14:57:04.436Z,100847.75
2022-08-03T14:59:56.401Z,100840.53
2022-08-03T15:02:25.033Z,100845.63
2022-08-03T15:04:55.577Z,100839.59
2022-08-03T15:07:25.950Z,100842.38
2022-08-03T15:09:56.158Z,100836.78
2022-08-03T15:12:28.977Z,100830.91
2022-08-03T15:14:59.519Z,100838.50
2022-08-03T15:17:29.783Z,100833.06
2022-08-03T15:20:22.567Z,100833.25
2022-08-03T15:22:53.329Z,100830.47
2022-08-03T15:26:28.727Z,100834.59
2022-08-03T15:28:16.419Z,100840.47
2022-08-03T15:30:46.664Z,100832.97
2022-08-03T15:33:16.875Z,100822.16
2022-08-03T15:35:47.858Z,100828.28
2022-08-03T15:38:18.240Z,100827.88
2022-08-03T15:40:49.103Z,100817.78
2022-08-03T15:43:21.891Z,100835.41
2022-08-03T15:46:12.809Z,100817.66
2022-08-03T15:48:42.594Z,100827.34
2022-08-03T15:51:13.282Z,100828.56
2022-08-03T15:53:43.570Z,100828.06
2022-08-03T15:56:18.278Z,100822.66
2022-08-03T15:59:03.616Z,100825.47
2022-08-03T16:01:41.939Z,100827.53
2022-08-03T16:04:12.259Z,100832.47
2022-08-03T16:06:42.488Z,100836.09
2022-08-03T16:09:24.121Z,100830.03
2022-08-03T16:12:02.855Z,100836.31
2022-08-03T16:14:46.897Z,100843.28
2022-08-03T16:17:22.594Z,100840.50
2022-08-03T16:19:55.083Z,100837.72
2022-08-03T16:22:25.683Z,100840.09
2022-08-03T16:24:56.725Z,100845.00
2022-08-03T16:27:37.566Z,100840.44
2022-08-03T16:30:20.325Z,100842.28
2022-08-03T16:32:50.546Z,100841.16
2022-08-03T16:35:21.360Z,100838.84
2022-08-03T16:37:56.474Z,100829.41
2022-08-03T16:40:27.989Z,100835.34
2022-08-03T16:42:58.222Z,100837.13
2022-08-03T16:45:31.075Z,100840.38
2022-08-03T16:48:05.531Z,100840.88
2022-08-03T16:50:37.337Z,100848.41
2022-08-03T16:53:09.822Z,100837.88
2022-08-03T16:55:53.522Z,100850.72
2022-08-03T16:58:34.449Z,100849.06
2022-08-03T17:01:22.283Z,100849.56
2022-08-03T17:04:02.377Z,100847.69
2022-08-03T17:06:34.151Z,100843.47
2022-08-03T17:09:08.358Z,100848.44
2022-08-03T17:11:46.845Z,100859.09
2022-08-03T17:14:21.774Z,100865.84
2022-08-03T17:16:58.434Z,100866.84
2022-08-03T17:19:29.267Z,100861.53
2022-08-03T17:22:04.853Z,100864.59
2022-08-03T17:24:41.497Z,100865.69
2022-08-03T17:27:23.179Z,100861.88
2022-08-03T17:30:11.867Z,100866.63
2022-08-03T17:32:56.572Z,100872.19
2022-08-03T17:35:36.682Z,100874.25
2022-08-03T17:38:14.458Z,100873.81
2022-08-03T17:40:50.040Z,100873.81
2022-08-03T17:44:08.195Z,100880.19
2022-08-03T17:46:13.158Z,100882.66
2022-08-03T17:48:45.956Z,100885.91
2022-08-03T17:51:21.135Z,100885.44
2022-08-03T17:53:56.858Z,100887.91
2022-08-03T17:56:44.994Z,100887.75
